createdAt,value
2018-02-27T05:00:46.848Z,0
2018-02-27T05:01:12.331Z,0
2018-02-27T05:01:37.830Z,0
2018-02-27T05:02:03.299Z,0
2018-02-27T05:02:28.769Z,0
2018-02-27T05:02:54.268Z,0
2018-02-27T05:03:19.794Z,0
2018-02-27T05:03:45.322Z,0
2018-02-27T05:04:10.812Z,0
2018-02-27T05:04:36.282Z,0
2018-02-27T05:05:01.823Z,0
2018-02-27T05:05:27.282Z,0
2018-02-27T05:05:52.722Z,0
2018-02-27T05:06:18.208Z,0
2018-02-27T05:06:43.701Z,0
2018-02-27T05:07:09.145Z,0
2018-02-27T05:07:34.654Z,0
2018-02-27T05:08:00.147Z,0
2018-02-27T05:08:25.630Z,0
2018-02-27T05:08:51.112Z,0
2018-02-27T05:09:16.698Z,0
2018-02-27T05:09:42.199Z,0
2018-02-27T05:10:07.599Z,0
2018-02-27T05:10:33.121Z,0
2018-02-27T05:10:58.650Z,0
2018-02-27T05:11:24.084Z,0
2018-02-27T05:11:49.588Z,0
2018-02-27T05:12:15.313Z,0
2018-02-27T05:12:40.806Z,0
2018-02-27T05:13:06.285Z,0
2018-02-27T05:13:31.730Z,0
2018-02-27T05:13:57.484Z,0
2018-02-27T05:14:22.913Z,0
2018-02-27T05:14:48.394Z,0
2018-02-27T05:15:13.905Z,0
2018-02-27T05:15:39.520Z,0
2018-02-27T05:16:04.971Z,0
2018-02-27T05:16:30.426Z,0
2018-02-27T05:16:55.960Z,0
2018-02-27T05:17:21.474Z,0
2018-02-27T05:17:46.970Z,0
2018-02-27T05:18:12.450Z,0
2018-02-27T05:18:37.851Z,0
2018-02-27T05:19:03.346Z,0
2018-02-27T05:19:28.848Z,0
2018-02-27T05:19:54.275Z,0
2018-02-27T05:20:19.767Z,0
2018-02-27T05:20:45.279Z,0
2018-02-27T05:21:10.755Z,0
2018-02-27T05:21:36.186Z,0
2018-02-27T05:22:01.632Z,0
2018-02-27T05:22:27.370Z,0
2018-02-27T05:22:52.838Z,0
2018-02-27T05:23:18.363Z,0
2018-02-27T05:23:43.860Z,0
2018-02-27T05:24:09.275Z,0
2018-02-27T05:24:34.749Z,0
2018-02-27T05:25:00.244Z,0
2018-02-27T05:25:25.667Z,0
2018-02-27T05:25:51.182Z,0
2018-02-27T05:26:16.770Z,0
2018-02-27T05:26:42.165Z,0
2018-02-27T05:27:07.657Z,0
2018-02-27T05:27:33.212Z,0
2018-02-27T05:27:58.651Z,0
2018-02-27T05:28:24.120Z,0
2018-02-27T05:28:49.563Z,0
2018-02-27T05:29:15.024Z,0
2018-02-27T05:29:40.485Z,0
2018-02-27T05:30:06.002Z,0
2018-02-27T05:30:31.557Z,0
2018-02-27T05:30:57.110Z,0
2018-02-27T05:31:22.467Z,0
2018-02-27T05:31:47.936Z,0
2018-02-27T05:32:13.445Z,0
2018-02-27T05:32:38.871Z,0
2018-02-27T05:33:04.379Z,0
2018-02-27T05:33:29.837Z,0
2018-02-27T05:33:55.353Z,0
2018-02-27T05:34:20.823Z,0
2018-02-27T05:34:46.277Z,0
2018-02-27T05:35:11.802Z,0
2018-02-27T05:35:37.380Z,0
2018-02-27T05:36:02.858Z,0
2018-02-27T05:36:28.407Z,0
2018-02-27T05:36:53.803Z,0
2018-02-27T05:37:19.207Z,0
2018-02-27T05:37:44.709Z,0
2018-02-27T05:38:10.194Z,0
2018-02-27T05:38:35.785Z,0
2018-02-27T05:39:01.293Z,0
2018-02-27T05:39:26.678Z,0
2018-02-27T05:39:52.207Z,0
2018-02-27T05:40:17.660Z,0
2018-02-27T05:40:43.171Z,0
2018-02-27T05:41:08.704Z,0
2018-02-27T05:41:34.243Z,0
2018-02-27T05:41:59.646Z,0
2018-02-27T05:42:25.125Z,0
2018-02-27T05:42:50.637Z,0
2018-02-27T05:43:16.033Z,0
2018-02-27T05:43:41.528Z,0
2018-02-27T05:44:07.007Z,0
2018-02-27T05:44:32.648Z,0
2018-02-27T05:44:58.052Z,0
2018-02-27T05:45:23.581Z,0
2018-02-27T05:45:49.015Z,0
2018-02-27T05:46:14.509Z,0
2018-02-27T05:46:40.010Z,0
2018-02-27T05:47:05.613Z,0
2018-02-27T05:47:31.054Z,0
2018-02-27T05:47:56.503Z,0
2018-02-27T05:48:22.033Z,0
2018-02-27T05:48:47.530Z,4
2018-02-27T05:49:13.039Z,4
2018-02-27T05:49:38.460Z,4
2018-02-27T05:50:03.922Z,4
2018-02-27T05:50:29.508Z,4
2018-02-27T05:50:54.988Z,0
2018-02-27T05:51:20.514Z,0
2018-02-27T05:51:45.991Z,0
2018-02-27T05:52:11.505Z,4
2018-02-27T05:52:36.989Z,4
2018-02-27T05:53:02.511Z,4
2018-02-27T05:53:28.041Z,4
2018-02-27T05:53:53.443Z,4
2018-02-27T05:54:18.883Z,4
2018-02-27T05:54:44.438Z,4
2018-02-27T05:55:09.893Z,8
2018-02-27T05:55:35.419Z,4
2018-02-27T05:56:01.353Z,4
2018-02-27T05:56:26.845Z,8
2018-02-27T05:56:52.360Z,4
2018-02-27T05:57:17.825Z,8
2018-02-27T05:57:43.283Z,8
2018-02-27T05:58:08.762Z,8
2018-02-27T05:58:34.215Z,8
2018-02-27T05:58:59.778Z,12
2018-02-27T05:59:25.278Z,8
2018-02-27T05:59:50.809Z,12
2018-02-27T06:00:16.231Z,12
2018-02-27T06:00:41.759Z,12
2018-02-27T06:01:07.236Z,12
2018-02-27T06:01:32.732Z,12
2018-02-27T06:01:58.341Z,16
2018-02-27T06:02:24.050Z,16
2018-02-27T06:03:48.186Z,20
2018-02-27T06:04:13.897Z,20
2018-02-27T06:04:39.330Z,24
2018-02-27T06:05:04.804Z,24
2018-02-27T06:05:30.282Z,28
2018-02-27T06:05:55.788Z,28
2018-02-27T06:06:21.311Z,28
2018-02-27T06:06:46.797Z,32
2018-02-27T06:07:12.310Z,32
2018-02-27T06:07:37.848Z,36
2018-02-27T06:08:03.341Z,36
2018-02-27T06:08:28.892Z,40
2018-02-27T06:08:54.389Z,44
2018-02-27T06:09:19.838Z,44
2018-02-27T06:09:45.332Z,48
2018-02-27T06:10:10.823Z,48
2018-02-27T06:10:36.276Z,52
2018-02-27T06:11:01.749Z,56
2018-02-27T06:11:27.256Z,64
2018-02-27T06:11:52.753Z,64
2018-02-27T06:12:18.239Z,72
2018-02-27T06:12:43.732Z,72
2018-02-27T06:13:09.626Z,76
2018-02-27T06:13:35.144Z,76
2018-02-27T06:14:00.591Z,80
2018-02-27T06:14:26.090Z,84
2018-02-27T06:14:51.549Z,88
2018-02-27T06:15:17.048Z,88
2018-02-27T06:15:42.501Z,96
2018-02-27T06:16:07.951Z,100
2018-02-27T06:16:33.395Z,104
2018-02-27T06:16:59.242Z,112
2018-02-27T06:17:24.866Z,116
2018-02-27T06:17:50.335Z,120
2018-02-27T06:18:15.812Z,120
2018-02-27T06:18:41.311Z,124
2018-02-27T06:19:06.923Z,128
2018-02-27T06:19:32.255Z,136
2018-02-27T06:19:57.781Z,140
2018-02-27T06:20:23.300Z,148
2018-02-27T06:20:48.755Z,152
2018-02-27T06:21:14.262Z,160
2018-02-27T06:21:39.785Z,168
2018-02-27T06:22:05.183Z,176
2018-02-27T06:22:30.714Z,184
2018-02-27T06:22:56.235Z,192
2018-02-27T06:23:21.765Z,196
2018-02-27T06:23:47.265Z,200
2018-02-27T06:24:12.723Z,204
2018-02-27T06:24:38.264Z,208
2018-02-27T06:25:03.673Z,216
2018-02-27T06:25:29.221Z,224
2018-02-27T06:25:54.709Z,228
2018-02-27T06:26:20.121Z,236
2018-02-27T06:26:45.635Z,244
2018-02-27T06:27:11.149Z,252
2018-02-27T06:27:36.631Z,260
2018-02-27T06:28:02.117Z,268
2018-02-27T06:28:27.681Z,268
2018-02-27T06:28:53.098Z,272
2018-02-27T06:29:18.609Z,280
2018-02-27T06:29:44.060Z,292
2018-02-27T06:30:09.535Z,308
2018-02-27T06:30:35.034Z,316
2018-02-27T06:31:00.441Z,324
2018-02-27T06:31:25.925Z,328
2018-02-27T06:31:51.461Z,336
2018-02-27T06:32:16.935Z,348
2018-02-27T06:32:42.560Z,356
2018-02-27T06:33:07.933Z,368
2018-02-27T06:34:21.646Z,392
2018-02-27T06:34:47.152Z,400
2018-02-27T06:35:12.660Z,408
2018-02-27T06:35:38.250Z,424
2018-02-27T06:36:03.717Z,436
2018-02-27T06:36:29.300Z,452
2018-02-27T06:36:54.870Z,464
2018-02-27T06:37:20.391Z,472
2018-02-27T06:37:45.888Z,480
2018-02-27T06:38:11.396Z,488
2018-02-27T06:38:36.922Z,492
2018-02-27T06:39:02.488Z,496
2018-02-27T06:39:27.860Z,504
2018-02-27T06:39:53.340Z,520
2018-02-27T06:40:18.847Z,536
2018-02-27T06:40:44.346Z,560
2018-02-27T06:41:09.879Z,584
2018-02-27T06:41:35.497Z,604
2018-02-27T06:42:00.998Z,628
2018-02-27T06:42:26.540Z,640
2018-02-27T06:42:52.021Z,640
2018-02-27T06:43:17.505Z,648
2018-02-27T06:43:43.108Z,652
2018-02-27T06:44:08.596Z,656
2018-02-27T06:44:34.091Z,664
2018-02-27T06:44:59.617Z,676
2018-02-27T06:45:25.101Z,692
2018-02-27T06:45:50.554Z,720
2018-02-27T06:46:16.096Z,744
2018-02-27T06:46:41.512Z,756
2018-02-27T06:47:07.001Z,752
2018-02-27T06:47:32.519Z,736
2018-02-27T06:47:57.987Z,724
2018-02-27T06:48:23.509Z,708
2018-02-27T06:48:49.094Z,696
2018-02-27T06:49:14.588Z,696
2018-02-27T06:49:40.006Z,700
2018-02-27T06:50:05.450Z,708
2018-02-27T06:50:30.968Z,720
2018-02-27T06:50:56.483Z,736
2018-02-27T06:51:21.956Z,752
2018-02-27T06:52:25.533Z,788
2018-02-27T06:52:51.040Z,796
2018-02-27T06:53:16.543Z,796
2018-02-27T06:53:42.056Z,800
2018-02-27T06:54:07.782Z,808
2018-02-27T06:54:33.382Z,816
2018-02-27T06:54:59.240Z,820
2018-02-27T06:55:25.158Z,820
2018-02-27T06:55:50.703Z,832
2018-02-27T06:56:16.165Z,836
2018-02-27T06:56:41.643Z,848
2018-02-27T06:57:07.167Z,860
2018-02-27T06:57:32.761Z,872
2018-02-27T06:57:58.253Z,888
2018-02-27T06:58:23.682Z,904
2018-02-27T06:58:49.192Z,924
2018-02-27T06:59:14.669Z,952
2018-02-27T06:59:40.175Z,976
2018-02-27T07:00:05.725Z,1004
2018-02-27T07:00:31.142Z,1024
2018-02-27T07:00:57.005Z,1056
2018-02-27T07:01:22.488Z,1084
2018-02-27T07:01:47.962Z,1108
2018-02-27T07:02:13.437Z,1136
2018-02-27T07:02:38.901Z,1168
2018-02-27T07:03:04.832Z,1196
2018-02-27T07:03:30.465Z,1228
2018-02-27T07:03:55.904Z,1260
2018-02-27T07:04:21.405Z,1292
2018-02-27T07:05:35.186Z,1428
2018-02-27T07:06:00.671Z,1464
2018-02-27T07:06:26.230Z,1504
2018-02-27T07:06:51.713Z,1552
2018-02-27T07:07:17.213Z,1580
2018-02-27T07:07:42.819Z,1604
2018-02-27T07:08:08.343Z,1616
2018-02-27T07:08:33.806Z,1624
2018-02-27T07:08:59.345Z,1600
2018-02-27T07:09:24.870Z,1592
2018-02-27T07:09:50.378Z,1580
2018-02-27T07:10:15.979Z,1556
2018-02-27T07:10:41.562Z,1532
2018-02-27T07:11:07.074Z,1504
2018-02-27T07:11:32.685Z,1464
2018-02-27T07:11:58.101Z,1432
2018-02-27T07:12:23.627Z,1396
2018-02-27T07:13:32.362Z,1328
2018-02-27T07:13:58.153Z,1324
2018-02-27T07:14:23.602Z,1336
2018-02-27T07:14:49.215Z,1352
2018-02-27T07:15:14.751Z,1364
2018-02-27T07:15:40.261Z,1376
2018-02-27T07:16:05.761Z,1392
2018-02-27T07:16:32.456Z,1396
2018-02-27T07:16:57.934Z,1392
2018-02-27T07:17:23.376Z,1404
2018-02-27T07:17:48.872Z,1404
2018-02-27T07:18:14.699Z,1428
2018-02-27T07:18:40.010Z,1448
2018-02-27T07:19:05.490Z,1464
2018-02-27T07:19:31.186Z,1480
2018-02-27T07:19:56.771Z,1488
2018-02-27T07:20:22.251Z,1496
2018-02-27T07:20:47.802Z,1512
2018-02-27T07:21:13.271Z,1540
2018-02-27T07:21:38.763Z,1544
2018-02-27T07:22:04.268Z,1548
2018-02-27T07:22:29.773Z,1532
2018-02-27T07:22:55.267Z,1536
2018-02-27T07:23:20.726Z,1520
2018-02-27T07:23:46.348Z,1512
2018-02-27T07:24:11.772Z,1524
2018-02-27T07:24:37.267Z,1556
2018-02-27T07:25:02.766Z,1616
2018-02-27T07:25:28.487Z,1692
2018-02-27T07:25:53.789Z,1780
2018-02-27T07:26:19.530Z,1868
2018-02-27T07:26:45.050Z,1944
2018-02-27T07:27:10.548Z,1940
2018-02-27T07:27:36.172Z,1932
2018-02-27T07:28:01.750Z,1964
2018-02-27T07:28:27.193Z,2060
2018-02-27T07:28:52.643Z,2176
2018-02-27T07:29:18.194Z,2208
2018-02-27T07:29:43.653Z,2120
2018-02-27T07:30:09.169Z,1956
2018-02-27T07:30:34.579Z,1768
2018-02-27T07:31:00.032Z,1620
2018-02-27T07:31:25.559Z,1496
2018-02-27T07:31:51.002Z,1472
2018-02-27T07:32:16.568Z,1492
2018-02-27T07:32:42.006Z,1532
2018-02-27T07:33:07.502Z,1584
2018-02-27T07:33:32.981Z,1652
2018-02-27T07:33:58.562Z,1716
2018-02-27T07:34:24.217Z,1792
2018-02-27T07:34:49.926Z,1880
2018-02-27T07:35:15.418Z,1956
2018-02-27T07:35:40.912Z,2048
2018-02-27T07:36:06.398Z,2080
2018-02-27T07:36:31.910Z,2096
2018-02-27T07:36:57.408Z,2112
2018-02-27T07:37:22.875Z,2180
2018-02-27T07:37:48.387Z,2252
2018-02-27T07:38:13.894Z,2300
2018-02-27T07:38:39.451Z,2420
2018-02-27T07:39:04.987Z,2540
2018-02-27T07:39:30.447Z,2556
2018-02-27T07:39:56.011Z,2560
2018-02-27T07:40:21.518Z,2572
2018-02-27T07:40:47.236Z,2592
2018-02-27T07:41:12.983Z,2656
2018-02-27T07:41:38.493Z,2760
2018-02-27T07:42:04.159Z,2884
2018-02-27T07:42:29.857Z,2956
2018-02-27T07:42:55.466Z,2980
2018-02-27T07:43:21.003Z,2996
2018-02-27T07:43:46.498Z,3008
2018-02-27T07:44:12.303Z,2956
2018-02-27T07:44:37.768Z,2940
2018-02-27T07:45:03.219Z,2992
2018-02-27T07:45:28.714Z,3060
2018-02-27T07:45:54.210Z,3124
2018-02-27T07:46:19.811Z,3216
2018-02-27T07:46:45.664Z,3308
2018-02-27T07:47:11.145Z,3312
2018-02-27T07:47:36.666Z,3292
2018-02-27T07:48:02.111Z,3252
2018-02-27T07:48:27.633Z,3156
2018-02-27T07:48:53.056Z,2988
2018-02-27T07:49:18.549Z,2904
2018-02-27T07:49:44.046Z,2848
2018-02-27T07:50:09.466Z,2872
2018-02-27T07:50:34.956Z,2968
2018-02-27T07:51:00.466Z,2936
2018-02-27T07:51:26.008Z,2852
2018-02-27T07:52:51.031Z,2964
2018-02-27T07:53:16.469Z,3140
2018-02-27T07:53:41.972Z,3284
2018-02-27T07:54:07.416Z,3452
2018-02-27T07:54:32.900Z,3600
2018-02-27T07:54:58.372Z,3660
2018-02-27T07:55:23.925Z,3684
2018-02-27T07:55:49.320Z,3676
2018-02-27T07:56:14.811Z,3744
2018-02-27T07:56:40.295Z,3896
2018-02-27T07:57:05.737Z,4040
2018-02-27T07:57:31.194Z,4084
2018-02-27T07:57:56.632Z,3936
2018-02-27T07:58:22.134Z,3776
2018-02-27T07:58:47.575Z,3700
2018-02-27T07:59:13.055Z,3696
2018-02-27T07:59:38.467Z,3664
2018-02-27T08:00:03.926Z,3644
2018-02-27T08:00:29.380Z,3588
2018-02-27T08:00:54.848Z,3540
2018-02-27T08:01:20.333Z,3436
2018-02-27T08:01:45.841Z,3360
2018-02-27T08:02:11.301Z,3380
2018-02-27T08:02:36.757Z,3424
2018-02-27T08:03:02.247Z,3528
2018-02-27T08:03:27.665Z,3628
2018-02-27T08:03:53.129Z,3628
2018-02-27T08:04:18.658Z,3540
2018-02-27T08:04:44.219Z,3488
2018-02-27T08:05:09.675Z,3408
2018-02-27T08:05:35.135Z,3284
2018-02-27T08:06:00.618Z,3176
2018-02-27T08:06:26.134Z,3128
2018-02-27T08:06:51.657Z,3136
2018-02-27T08:07:17.142Z,3156
2018-02-27T08:07:42.628Z,3204
2018-02-27T08:08:08.278Z,3284
2018-02-27T08:08:33.792Z,3340
2018-02-27T08:08:59.343Z,3292
2018-02-27T08:09:24.837Z,3224
2018-02-27T08:09:50.421Z,3156
2018-02-27T08:10:15.888Z,3068
2018-02-27T08:10:41.431Z,3000
2018-02-27T08:11:55.241Z,2860
2018-02-27T08:12:20.873Z,2876
2018-02-27T08:12:46.429Z,2788
2018-02-27T08:13:12.016Z,2712
2018-02-27T08:13:37.536Z,2532
2018-02-27T08:14:03.074Z,2368
2018-02-27T08:14:28.647Z,2268
2018-02-27T08:14:54.128Z,2188
2018-02-27T08:15:19.679Z,2124
2018-02-27T08:15:45.146Z,2088
2018-02-27T08:16:10.685Z,2080
2018-02-27T08:16:36.095Z,2072
2018-02-27T08:17:01.562Z,2084
2018-02-27T08:17:27.058Z,2100
2018-02-27T08:17:52.516Z,2120
2018-02-27T08:18:18.323Z,2124
2018-02-27T08:18:43.839Z,2168
2018-02-27T08:19:09.320Z,2224
2018-02-27T08:19:34.731Z,2416
2018-02-27T08:20:00.269Z,2472
2018-02-27T08:20:25.757Z,2376
2018-02-27T08:20:51.254Z,2332
2018-02-27T08:21:16.747Z,2356
2018-02-27T08:21:42.193Z,2488
2018-02-27T08:22:07.726Z,2504
2018-02-27T08:22:33.238Z,2500
2018-02-27T08:22:58.863Z,2516
2018-02-27T08:23:24.320Z,2520
2018-02-27T08:23:49.802Z,2532
2018-02-27T08:24:15.308Z,2548
2018-02-27T08:24:40.897Z,2572
2018-02-27T08:25:06.404Z,2592
2018-02-27T08:25:31.969Z,2604
2018-02-27T08:25:57.490Z,2604
2018-02-27T08:26:23.017Z,2616
2018-02-27T08:26:48.589Z,2620
2018-02-27T08:27:13.976Z,2620
2018-02-27T08:27:39.506Z,2628
2018-02-27T08:28:05.218Z,2628
2018-02-27T08:28:30.651Z,2644
2018-02-27T08:28:56.149Z,2648
2018-02-27T08:29:21.619Z,2664
2018-02-27T08:29:47.077Z,2660
2018-02-27T08:30:12.508Z,2648
2018-02-27T08:30:38.016Z,2652
2018-02-27T08:31:03.582Z,2656
2018-02-27T08:31:28.974Z,2672
2018-02-27T08:31:54.474Z,2680
2018-02-27T08:32:20.002Z,2668
2018-02-27T08:32:45.522Z,2676
2018-02-27T08:33:10.895Z,2668
2018-02-27T08:33:36.368Z,2716
2018-02-27T08:34:01.961Z,2728
2018-02-27T08:34:27.449Z,2728
2018-02-27T08:34:52.930Z,2736
2018-02-27T08:35:18.456Z,2764
2018-02-27T08:35:43.905Z,2764
2018-02-27T08:36:09.375Z,2760
2018-02-27T08:36:34.797Z,2760
2018-02-27T08:37:00.413Z,2760
2018-02-27T08:37:25.827Z,2764
2018-02-27T08:37:51.322Z,2788
2018-02-27T08:38:16.783Z,2808
2018-02-27T08:38:42.222Z,2476
2018-02-27T08:39:07.724Z,2580
2018-02-27T08:39:33.224Z,2772
2018-02-27T08:39:58.676Z,2868
2018-02-27T08:40:24.125Z,2904
2018-02-27T08:40:49.631Z,2976
2018-02-27T08:41:15.256Z,3112
2018-02-27T08:41:40.752Z,3308
2018-02-27T08:42:06.178Z,3516
2018-02-27T08:42:31.624Z,3672
2018-02-27T08:42:57.156Z,3764
2018-02-27T08:43:22.623Z,3732
2018-02-27T08:43:48.097Z,3648
2018-02-27T08:44:13.501Z,3448
2018-02-27T08:44:39.001Z,3332
2018-02-27T08:45:04.451Z,3204
2018-02-27T08:45:29.892Z,3040
2018-02-27T08:45:55.367Z,3012
2018-02-27T08:46:20.892Z,2964
2018-02-27T08:46:46.336Z,2972
2018-02-27T08:47:11.849Z,2964
2018-02-27T08:47:37.346Z,2984
2018-02-27T08:48:02.821Z,2996
2018-02-27T08:48:28.331Z,3020
2018-02-27T08:48:53.800Z,3036
2018-02-27T08:49:19.346Z,3048
2018-02-27T08:49:44.930Z,3056
2018-02-27T08:50:10.382Z,3068
2018-02-27T08:50:35.848Z,3084
2018-02-27T08:51:01.358Z,3124
2018-02-27T08:51:26.865Z,3152
2018-02-27T08:51:52.358Z,3184
2018-02-27T08:52:17.749Z,3216
2018-02-27T08:52:43.260Z,3228
2018-02-27T08:53:08.780Z,3196
2018-02-27T08:53:34.292Z,3160
2018-02-27T08:53:59.690Z,3104
2018-02-27T08:54:25.297Z,3048
2018-02-27T08:54:50.750Z,3008
2018-02-27T08:55:16.225Z,3004
2018-02-27T08:55:41.697Z,2980
2018-02-27T08:56:07.223Z,2964
2018-02-27T08:56:32.749Z,2944
2018-02-27T08:56:58.302Z,2928
2018-02-27T08:57:23.830Z,2916
2018-02-27T08:57:49.296Z,2900
2018-02-27T08:58:14.820Z,2936
2018-02-27T08:58:40.426Z,2952
2018-02-27T08:59:05.916Z,2952
2018-02-27T08:59:31.414Z,2956
2018-02-27T08:59:56.863Z,2960
2018-02-27T09:00:22.370Z,2968
2018-02-27T09:00:47.812Z,2972
2018-02-27T09:01:13.357Z,2976
2018-02-27T09:01:38.812Z,3000
2018-02-27T09:02:04.276Z,3020
2018-02-27T09:02:29.779Z,3044
2018-02-27T09:02:55.294Z,2996
2018-02-27T09:03:20.767Z,2980
2018-02-27T09:03:46.353Z,2980
2018-02-27T09:04:11.830Z,2988
2018-02-27T09:04:37.302Z,2984
2018-02-27T09:05:02.752Z,2956
2018-02-27T09:05:28.226Z,2928
2018-02-27T09:05:53.757Z,2932
2018-02-27T09:06:19.190Z,2976
2018-02-27T09:06:44.650Z,3012
2018-02-27T09:07:10.134Z,3028
2018-02-27T09:07:35.566Z,3040
2018-02-27T09:08:01.066Z,3052
2018-02-27T09:08:26.530Z,3084
2018-02-27T09:08:52.040Z,3116
2018-02-27T09:09:17.502Z,3160
2018-02-27T09:09:43.005Z,3216
2018-02-27T09:10:08.596Z,3240
2018-02-27T09:10:34.063Z,3276
2018-02-27T09:10:59.559Z,3340
2018-02-27T09:11:25.133Z,3396
2018-02-27T09:11:50.504Z,3424
2018-02-27T09:12:15.963Z,3480
2018-02-27T09:12:41.483Z,3536
2018-02-27T09:13:06.915Z,3560
2018-02-27T09:13:32.385Z,3556
2018-02-27T09:13:57.918Z,3548
2018-02-27T09:14:23.322Z,3496
2018-02-27T09:14:48.863Z,3448
2018-02-27T09:15:14.251Z,3428
2018-02-27T09:15:39.771Z,2848
2018-02-27T09:16:05.300Z,3428
2018-02-27T09:16:30.702Z,3472
2018-02-27T09:16:56.178Z,3572
2018-02-27T09:17:21.687Z,3592
2018-02-27T09:17:47.103Z,3616
2018-02-27T09:18:12.604Z,3700
2018-02-27T09:18:38.068Z,3812
2018-02-27T09:19:03.532Z,3936
2018-02-27T09:19:29.026Z,3936
2018-02-27T09:19:54.506Z,3884
2018-02-27T09:20:20.014Z,3844
2018-02-27T09:20:45.493Z,3824
2018-02-27T09:21:11.037Z,3804
2018-02-27T09:21:36.488Z,3604
2018-02-27T09:22:01.949Z,3852
2018-02-27T09:22:27.398Z,3872
2018-02-27T09:22:52.879Z,4136
2018-02-27T09:23:18.375Z,4164
2018-02-27T09:23:43.834Z,3968
2018-02-27T09:24:09.329Z,3720
2018-02-27T09:24:34.868Z,3740
2018-02-27T09:25:00.276Z,3860
2018-02-27T09:25:25.765Z,3872
2018-02-27T09:25:51.241Z,3852
2018-02-27T09:26:16.768Z,3884
2018-02-27T09:26:42.168Z,3984
2018-02-27T09:27:07.675Z,4060
2018-02-27T09:27:33.097Z,4112
2018-02-27T09:27:58.592Z,4248
2018-02-27T09:28:24.050Z,4244
2018-02-27T09:28:49.694Z,4264
2018-02-27T09:29:15.190Z,4188
2018-02-27T09:29:40.640Z,3960
2018-02-27T09:30:54.423Z,4104
2018-02-27T09:31:19.945Z,4960
2018-02-27T09:31:45.418Z,5276
2018-02-27T09:32:10.920Z,5560
2018-02-27T09:32:36.374Z,5752
2018-02-27T09:33:01.860Z,5364
2018-02-27T09:33:27.362Z,4964
2018-02-27T09:33:52.783Z,5204
2018-02-27T09:34:18.239Z,4824
2018-02-27T09:34:43.692Z,5160
2018-02-27T09:35:09.130Z,5064
2018-02-27T09:35:34.593Z,5076
2018-02-27T09:36:00.072Z,5508
2018-02-27T09:36:25.546Z,5704
2018-02-27T09:36:51.028Z,5680
2018-02-27T09:37:16.488Z,5388
2018-02-27T09:37:41.984Z,4860
2018-02-27T09:38:07.524Z,4680
2018-02-27T09:38:32.994Z,5156
2018-02-27T09:38:58.418Z,5148
2018-02-27T09:39:23.887Z,5600
2018-02-27T09:39:49.489Z,5828
2018-02-27T09:40:14.983Z,6152
2018-02-27T09:40:40.477Z,6340
2018-02-27T09:41:05.969Z,6216
2018-02-27T09:41:31.462Z,6164
2018-02-27T09:41:56.954Z,5792
2018-02-27T09:42:22.422Z,5300
2018-02-27T09:42:47.857Z,4920
2018-02-27T09:43:13.451Z,4832
2018-02-27T09:43:38.952Z,4820
2018-02-27T09:44:04.424Z,4920
2018-02-27T09:44:29.927Z,5028
2018-02-27T09:44:55.359Z,4872
2018-02-27T09:45:20.798Z,4832
2018-02-27T09:45:46.296Z,4756
2018-02-27T09:46:12.099Z,4908
2018-02-27T09:46:37.565Z,5224
2018-02-27T09:47:03.092Z,5716
2018-02-27T09:47:28.577Z,6164
2018-02-27T09:47:54.154Z,6492
2018-02-27T09:48:19.645Z,6664
2018-02-27T09:48:45.070Z,6576
2018-02-27T09:49:10.573Z,6676
2018-02-27T09:49:36.084Z,6876
2018-02-27T09:50:01.517Z,7048
2018-02-27T09:50:27.025Z,7160
2018-02-27T09:50:52.490Z,7200
2018-02-27T09:51:17.934Z,7168
2018-02-27T09:51:43.488Z,7052
2018-02-27T09:52:08.937Z,6872
2018-02-27T09:52:34.319Z,6848
2018-02-27T09:52:59.972Z,6940
2018-02-27T09:53:25.453Z,7136
2018-02-27T09:53:50.908Z,7252
2018-02-27T09:54:16.463Z,7392
2018-02-27T09:54:41.964Z,7480
2018-02-27T09:55:07.508Z,7512
2018-02-27T09:55:32.899Z,7580
2018-02-27T09:55:58.357Z,7708
2018-02-27T09:56:23.843Z,7688
2018-02-27T09:56:49.288Z,7512
2018-02-27T09:57:14.881Z,7328
2018-02-27T09:57:40.340Z,7208
2018-02-27T09:58:05.784Z,6876
2018-02-27T09:58:31.340Z,6980
2018-02-27T09:58:56.792Z,7168
2018-02-27T09:59:22.425Z,7352
2018-02-27T09:59:47.858Z,7536
2018-02-27T10:00:13.517Z,7988
2018-02-27T10:00:39.581Z,8588
2018-02-27T10:01:05.091Z,8956
2018-02-27T10:01:30.645Z,9076
2018-02-27T10:01:56.186Z,9184
2018-02-27T10:02:21.665Z,8824
2018-02-27T10:02:47.074Z,7952
2018-02-27T10:03:12.601Z,7224
2018-02-27T10:03:38.071Z,6764
2018-02-27T10:04:03.548Z,6692
2018-02-27T10:04:29.016Z,6484
2018-02-27T10:04:54.550Z,6048
2018-02-27T10:05:20.021Z,5648
2018-02-27T10:05:45.511Z,5388
2018-02-27T10:06:11.200Z,5492
2018-02-27T10:06:36.710Z,5632
2018-02-27T10:07:02.841Z,5880
2018-02-27T10:07:27.597Z,6076
2018-02-27T10:07:53.042Z,6124
2018-02-27T10:08:18.592Z,6164
2018-02-27T10:08:44.090Z,6096
2018-02-27T10:09:09.592Z,6068
2018-02-27T10:09:35.087Z,6356
2018-02-27T10:10:00.681Z,6688
2018-02-27T10:10:26.303Z,6732
2018-02-27T10:10:51.782Z,6748
2018-02-27T10:11:17.282Z,6824
2018-02-27T10:11:42.963Z,6980
2018-02-27T10:12:08.380Z,6988
2018-02-27T10:12:33.832Z,6932
2018-02-27T10:12:59.337Z,7000
2018-02-27T10:13:24.795Z,7184
2018-02-27T10:13:50.257Z,7280
2018-02-27T10:14:15.716Z,7364
2018-02-27T10:14:41.406Z,7464
2018-02-27T10:15:07.090Z,7484
2018-02-27T10:15:33.422Z,7360
2018-02-27T10:15:59.178Z,7380
2018-02-27T10:16:24.677Z,7700
2018-02-27T10:16:50.164Z,8256
2018-02-27T10:17:15.582Z,8644
2018-02-27T10:17:41.337Z,8656
2018-02-27T10:18:06.884Z,8196
2018-02-27T10:18:32.426Z,7452
2018-02-27T10:18:57.941Z,6988
2018-02-27T10:19:23.413Z,6908
2018-02-27T10:19:48.895Z,6796
2018-02-27T10:20:15.571Z,6596
2018-02-27T10:20:41.261Z,6296
2018-02-27T10:21:06.869Z,6044
2018-02-27T10:21:32.353Z,5968
2018-02-27T10:21:57.876Z,5928
2018-02-27T10:22:23.348Z,6172
2018-02-27T10:22:48.831Z,6120
2018-02-27T10:23:14.439Z,5932
2018-02-27T10:23:39.785Z,5776
2018-02-27T10:24:05.477Z,5856
2018-02-27T10:24:31.040Z,5796
2018-02-27T10:24:56.459Z,5728
2018-02-27T10:25:22.023Z,5620
2018-02-27T10:25:47.423Z,5644
2018-02-27T10:26:12.968Z,6012
2018-02-27T10:26:38.426Z,6620
2018-02-27T10:27:03.870Z,7424
2018-02-27T10:27:29.381Z,8240
2018-02-27T10:27:55.021Z,8424
2018-02-27T10:28:20.456Z,7680
2018-02-27T10:28:45.961Z,6576
2018-02-27T10:29:11.506Z,5684
2018-02-27T10:29:36.870Z,5044
2018-02-27T10:30:02.518Z,4608
2018-02-27T10:30:27.996Z,4348
2018-02-27T10:30:53.515Z,4456
2018-02-27T10:31:19.154Z,4720
2018-02-27T10:31:44.633Z,4972
2018-02-27T10:32:10.149Z,5272
2018-02-27T10:32:35.623Z,5596
2018-02-27T10:33:01.124Z,5820
2018-02-27T10:33:26.544Z,6120
2018-02-27T10:33:52.113Z,6368
2018-02-27T10:34:17.639Z,6528
2018-02-27T10:34:43.178Z,6636
2018-02-27T10:35:08.626Z,6680
2018-02-27T10:35:34.083Z,6472
2018-02-27T10:35:59.627Z,6304
2018-02-27T10:36:25.065Z,6388
2018-02-27T10:36:50.560Z,6604
2018-02-27T10:37:16.153Z,6800
2018-02-27T10:37:41.637Z,6884
2018-02-27T10:38:07.042Z,6952
2018-02-27T10:38:32.522Z,7092
2018-02-27T10:38:58.096Z,7228
2018-02-27T10:39:23.597Z,6992
2018-02-27T10:39:49.119Z,6560
2018-02-27T10:40:14.588Z,6128
2018-02-27T10:40:40.009Z,5580
2018-02-27T10:41:05.554Z,5168
2018-02-27T10:41:31.157Z,4728
2018-02-27T10:41:56.736Z,4508
2018-02-27T10:42:22.226Z,4400
2018-02-27T10:42:47.753Z,4500
2018-02-27T10:43:13.429Z,4800
2018-02-27T10:43:38.915Z,5128
2018-02-27T10:44:04.363Z,5500
2018-02-27T10:44:29.834Z,5852
2018-02-27T10:44:55.358Z,6068
2018-02-27T10:45:20.823Z,6064
2018-02-27T10:45:46.350Z,5964
2018-02-27T10:46:11.815Z,5812
2018-02-27T10:46:37.258Z,5632
2018-02-27T10:47:02.727Z,5340
2018-02-27T10:47:28.439Z,4948
2018-02-27T10:47:53.913Z,4656
2018-02-27T10:48:19.423Z,4488
2018-02-27T10:48:44.838Z,4440
2018-02-27T10:49:10.275Z,4472
2018-02-27T10:49:35.742Z,4500
2018-02-27T10:50:01.236Z,4532
2018-02-27T10:50:26.692Z,4600
2018-02-27T10:50:52.183Z,4760
2018-02-27T10:51:17.647Z,5104
2018-02-27T10:51:43.107Z,5584
2018-02-27T10:52:08.530Z,5916
2018-02-27T10:52:34.027Z,5668
2018-02-27T10:52:59.582Z,5076
2018-02-27T10:53:25.086Z,4592
2018-02-27T10:53:50.519Z,4336
2018-02-27T10:54:16.099Z,4252
2018-02-27T10:54:41.573Z,4300
2018-02-27T10:55:07.091Z,4116